createdAt,value
2016-11-09T00:00:57.077Z,0
2016-11-09T00:01:42.182Z,0
2016-11-09T00:02:42.519Z,0
2016-11-09T00:04:57.148Z,0
2016-11-09T00:05:42.244Z,0
2016-11-09T00:06:42.261Z,0
2016-11-09T00:07:42.587Z,0
2016-11-09T00:08:42.306Z,0
2016-11-09T00:09:42.317Z,0
2016-11-09T00:10:42.343Z,0
2016-11-09T00:11:42.352Z,0
2016-11-09T00:12:42.378Z,0
2016-11-09T00:13:42.382Z,0
2016-11-09T00:14:42.399Z,0
2016-11-09T00:15:42.424Z,0
2016-11-09T00:16:42.442Z,0
2016-11-09T00:17:57.369Z,0
2016-11-09T00:19:42.486Z,0
2016-11-09T00:20:42.502Z,0
2016-11-09T00:21:42.523Z,0
2016-11-09T00:22:57.448Z,0
2016-11-09T00:23:57.466Z,0
2016-11-09T00:24:42.569Z,0
2016-11-09T00:25:42.586Z,0
2016-11-09T00:26:42.600Z,0
2016-11-09T00:27:42.616Z,0
2016-11-09T00:28:42.634Z,0
2016-11-09T00:29:42.652Z,0
2016-11-09T00:30:57.582Z,0
2016-11-09T00:31:42.689Z,0
2016-11-09T00:32:57.614Z,0
2016-11-09T00:33:57.627Z,0
2016-11-09T00:34:42.744Z,0
2016-11-09T00:35:42.743Z,0
2016-11-09T00:36:42.772Z,0
2016-11-09T00:37:42.782Z,0
2016-11-09T00:38:42.801Z,0
2016-11-09T00:39:57.732Z,0
2016-11-09T00:40:42.834Z,0
2016-11-09T00:41:42.852Z,0
2016-11-09T00:42:42.868Z,0
2016-11-09T00:43:42.884Z,0
2016-11-09T00:44:42.900Z,0
2016-11-09T00:45:42.915Z,0
2016-11-09T00:46:57.847Z,0
2016-11-09T00:47:42.994Z,0
2016-11-09T00:48:57.878Z,0
2016-11-09T00:50:43.256Z,0
2016-11-09T00:51:43.016Z,0
2016-11-09T00:52:43.035Z,0
2016-11-09T00:53:43.054Z,0
2016-11-09T00:54:43.106Z,0
2016-11-09T00:55:57.999Z,0
2016-11-09T00:56:43.106Z,0
2016-11-09T00:57:43.116Z,0
2016-11-09T00:58:43.141Z,0
2016-11-09T00:59:58.063Z,0
2016-11-09T01:00:58.084Z,0
2016-11-09T01:01:43.191Z,0
2016-11-09T01:02:58.117Z,0
2016-11-09T01:03:58.133Z,0
2016-11-09T01:04:43.230Z,0
2016-11-09T01:05:43.251Z,0
2016-11-09T01:06:43.278Z,0
2016-11-09T01:07:43.281Z,0
2016-11-09T01:08:43.304Z,0
2016-11-09T01:09:43.325Z,0
2016-11-09T01:10:43.336Z,0
2016-11-09T01:12:13.178Z,0
2016-11-09T01:12:43.374Z,0
2016-11-09T01:13:43.385Z,0
2016-11-09T01:14:43.400Z,0
2016-11-09T01:15:43.417Z,0
2016-11-09T01:16:43.474Z,0
2016-11-09T01:17:58.363Z,0
2016-11-09T01:18:43.465Z,0
2016-11-09T01:19:58.403Z,0
2016-11-09T01:20:43.503Z,0
2016-11-09T01:21:43.514Z,0
2016-11-09T01:22:43.529Z,0
2016-11-09T01:23:43.547Z,0
2016-11-09T01:24:43.565Z,0
2016-11-09T01:25:58.497Z,0
2016-11-09T01:27:13.428Z,0
2016-11-09T01:27:43.610Z,0
2016-11-09T01:28:43.634Z,0
2016-11-09T01:29:43.650Z,0
2016-11-09T01:30:43.669Z,0
2016-11-09T01:31:43.682Z,0
2016-11-09T01:32:43.708Z,0
2016-11-09T01:33:58.631Z,0
2016-11-09T01:34:43.734Z,0
2016-11-09T01:35:43.749Z,0
2016-11-09T01:36:43.765Z,0
2016-11-09T01:37:43.779Z,0
2016-11-09T01:38:43.804Z,0
2016-11-09T01:39:43.818Z,0
2016-11-09T01:40:43.835Z,0
2016-11-09T01:41:43.846Z,0
2016-11-09T01:42:43.869Z,0
2016-11-09T01:43:58.793Z,0
2016-11-09T01:44:43.901Z,0
2016-11-09T01:45:43.918Z,0
2016-11-09T01:46:43.930Z,0
2016-11-09T01:47:58.863Z,0
2016-11-09T01:48:43.974Z,0
2016-11-09T01:49:43.982Z,0
2016-11-09T01:50:44.004Z,0
2016-11-09T01:51:44.018Z,0
2016-11-09T01:52:44.032Z,0
2016-11-09T01:53:58.966Z,0
2016-11-09T01:54:44.377Z,0
2016-11-09T01:55:44.077Z,0
2016-11-09T01:56:44.100Z,0
2016-11-09T01:59:44.444Z,0
2016-11-09T02:00:44.164Z,0
2016-11-09T02:01:44.178Z,0
2016-11-09T02:02:44.203Z,0
2016-11-09T02:03:44.209Z,0
2016-11-09T02:04:44.270Z,0
2016-11-09T02:05:59.160Z,0
2016-11-09T02:06:44.261Z,0
2016-11-09T02:07:44.279Z,0
2016-11-09T02:09:44.359Z,0
2016-11-09T02:10:44.336Z,0
2016-11-09T02:11:44.351Z,0
2016-11-09T02:12:59.280Z,0
2016-11-09T02:13:44.381Z,0
2016-11-09T02:14:59.307Z,0
2016-11-09T02:15:44.448Z,0
2016-11-09T02:16:44.470Z,0
2016-11-09T02:17:44.446Z,0
2016-11-09T02:18:44.462Z,0
2016-11-09T02:19:44.513Z,0
2016-11-09T02:20:59.413Z,0
2016-11-09T02:21:44.512Z,0
2016-11-09T02:22:44.530Z,0
2016-11-09T02:23:44.544Z,0
2016-11-09T02:24:44.561Z,0
2016-11-09T02:25:59.803Z,0
2016-11-09T02:27:44.611Z,0
2016-11-09T02:28:44.630Z,0
2016-11-09T02:29:44.651Z,0
2016-11-09T02:30:59.574Z,0
2016-11-09T02:31:44.686Z,0
2016-11-09T02:32:44.700Z,0
2016-11-09T02:34:44.725Z,0
2016-11-09T02:35:44.748Z,0
2016-11-09T02:36:44.767Z,0
2016-11-09T02:37:59.693Z,0
2016-11-09T02:38:45.110Z,0
2016-11-09T02:39:44.816Z,0
2016-11-09T02:40:44.831Z,0
2016-11-09T02:41:44.845Z,0
2016-11-09T02:42:59.779Z,0
2016-11-09T02:43:44.887Z,0
2016-11-09T02:44:44.891Z,0
2016-11-09T02:45:44.911Z,0
2016-11-09T02:46:59.841Z,0
2016-11-09T02:47:44.942Z,0
2016-11-09T02:48:45.260Z,0
2016-11-09T02:49:44.983Z,0
2016-11-09T02:50:44.988Z,0
2016-11-09T02:52:00.173Z,0
2016-11-09T02:52:45.026Z,0
2016-11-09T02:53:45.043Z,0
2016-11-09T02:54:59.974Z,0
2016-11-09T02:55:45.079Z,0
2016-11-09T02:56:45.095Z,0
2016-11-09T02:57:45.110Z,0
2016-11-09T02:58:45.121Z,0
2016-11-09T02:59:45.146Z,0
2016-11-09T03:01:00.073Z,0
2016-11-09T03:02:00.096Z,0
2016-11-09T03:02:45.198Z,0
2016-11-09T03:03:45.213Z,0
2016-11-09T03:04:45.229Z,0
2016-11-09T03:05:45.247Z,0
2016-11-09T03:07:00.176Z,0
2016-11-09T03:07:45.272Z,0
2016-11-09T03:08:45.294Z,0
2016-11-09T03:09:45.313Z,0
2016-11-09T03:10:45.324Z,0
2016-11-09T03:11:45.341Z,0
2016-11-09T03:12:45.360Z,0
2016-11-09T03:13:45.376Z,0
2016-11-09T03:14:45.392Z,0
2016-11-09T03:15:45.404Z,0
2016-11-09T03:17:45.445Z,0
2016-11-09T03:19:00.368Z,0
2016-11-09T03:19:45.479Z,0
2016-11-09T03:22:45.531Z,0
2016-11-09T03:24:00.457Z,0
2016-11-09T03:24:45.560Z,0
2016-11-09T03:25:45.575Z,0
2016-11-09T03:26:45.592Z,0
2016-11-09T03:27:45.608Z,0
2016-11-09T03:28:45.871Z,0
2016-11-09T03:29:45.635Z,0
2016-11-09T03:30:45.719Z,0
2016-11-09T03:31:45.675Z,0
2016-11-09T03:32:45.683Z,0
2016-11-09T03:34:00.621Z,0
2016-11-09T03:35:00.633Z,0
2016-11-09T03:35:46.056Z,0
2016-11-09T03:36:45.759Z,0
2016-11-09T03:37:46.171Z,0
2016-11-09T03:38:46.106Z,0
2016-11-09T03:39:45.805Z,0
2016-11-09T03:40:45.816Z,0
2016-11-09T03:42:00.749Z,0
2016-11-09T03:42:45.854Z,0
2016-11-09T03:43:45.871Z,0
2016-11-09T03:44:45.922Z,0
2016-11-09T03:45:45.934Z,0
2016-11-09T03:46:45.922Z,0
2016-11-09T03:47:45.938Z,0
2016-11-09T03:50:15.795Z,0
2016-11-09T03:50:45.978Z,0
2016-11-09T03:51:46.004Z,0
2016-11-09T03:52:46.018Z,0
2016-11-09T03:53:46.031Z,0
2016-11-09T03:54:46.049Z,0
2016-11-09T03:55:46.370Z,0
2016-11-09T03:56:46.078Z,0
2016-11-09T03:57:46.102Z,0
2016-11-09T03:58:46.112Z,0
2016-11-09T03:59:46.165Z,0
2016-11-09T04:01:46.165Z,0
2016-11-09T04:03:01.097Z,0
2016-11-09T04:03:46.297Z,0
2016-11-09T04:04:46.218Z,0
2016-11-09T04:06:01.141Z,0
2016-11-09T04:06:46.256Z,0
2016-11-09T04:07:46.267Z,0
2016-11-09T04:08:46.529Z,0
2016-11-09T04:09:46.298Z,0
2016-11-09T04:11:01.231Z,0
2016-11-09T04:11:46.331Z,0
2016-11-09T04:12:46.350Z,0
2016-11-09T04:13:46.362Z,0
2016-11-09T04:15:01.292Z,0
2016-11-09T04:15:46.398Z,0
2016-11-09T04:16:46.413Z,0
2016-11-09T04:18:01.344Z,0
2016-11-09T04:18:46.447Z,0
2016-11-09T04:20:01.375Z,0
2016-11-09T04:20:46.478Z,0
2016-11-09T04:22:01.408Z,0
2016-11-09T04:22:46.521Z,0
2016-11-09T04:23:46.526Z,0
2016-11-09T04:24:46.542Z,0
2016-11-09T04:26:01.466Z,0
2016-11-09T04:26:46.577Z,0
2016-11-09T04:27:46.590Z,0
2016-11-09T04:28:46.612Z,0
2016-11-09T04:29:46.620Z,0
2016-11-09T04:30:46.640Z,0
2016-11-09T04:31:46.654Z,0
2016-11-09T04:32:46.670Z,0
2016-11-09T04:33:46.683Z,0
2016-11-09T04:34:46.698Z,0
2016-11-09T04:35:47.324Z,0
2016-11-09T04:38:01.665Z,0
2016-11-09T04:38:46.766Z,0
2016-11-09T04:39:46.833Z,0
2016-11-09T04:40:46.801Z,0
2016-11-09T04:41:46.819Z,0
2016-11-09T04:42:46.834Z,0
2016-11-09T04:44:01.767Z,0
2016-11-09T04:44:46.871Z,0
2016-11-09T04:45:46.888Z,0
2016-11-09T04:46:46.901Z,0
2016-11-09T04:47:46.930Z,0
2016-11-09T04:48:46.933Z,0
2016-11-09T04:49:46.948Z,0
2016-11-09T04:51:01.880Z,0
2016-11-09T04:51:46.984Z,0
2016-11-09T04:53:01.911Z,0
2016-11-09T04:53:47.054Z,0
2016-11-09T04:54:47.030Z,0
2016-11-09T04:55:47.065Z,0
2016-11-09T04:56:47.061Z,0
2016-11-09T04:57:47.075Z,0
2016-11-09T04:58:47.091Z,0
2016-11-09T04:59:47.416Z,0
2016-11-09T05:01:02.040Z,0
2016-11-09T05:01:47.143Z,0
2016-11-09T05:02:47.158Z,0
2016-11-09T05:03:47.178Z,0
2016-11-09T05:04:47.193Z,0
2016-11-09T05:05:47.209Z,0
2016-11-09T05:06:47.232Z,0
2016-11-09T05:07:47.520Z,0
2016-11-09T05:09:17.084Z,0
2016-11-09T05:09:47.267Z,0
2016-11-09T05:10:47.293Z,0
2016-11-09T05:11:47.308Z,0
2016-11-09T05:12:47.322Z,0
2016-11-09T05:13:47.338Z,0
2016-11-09T05:14:47.353Z,0
2016-11-09T05:15:47.371Z,0
2016-11-09T05:16:47.386Z,0
2016-11-09T05:18:02.653Z,0
2016-11-09T05:18:47.416Z,0
2016-11-09T05:19:47.433Z,0
2016-11-09T05:20:47.449Z,0
2016-11-09T05:22:47.479Z,0
2016-11-09T05:23:47.748Z,0
2016-11-09T05:25:47.874Z,0
2016-11-09T05:26:47.856Z,0
2016-11-09T05:27:47.863Z,0
2016-11-09T05:28:47.577Z,0
2016-11-09T05:29:47.597Z,0
2016-11-09T05:30:47.609Z,0
2016-11-09T05:31:47.622Z,0
2016-11-09T05:32:47.638Z,0
2016-11-09T05:33:47.658Z,0
2016-11-09T05:35:02.585Z,0
2016-11-09T05:35:47.688Z,0
2016-11-09T05:36:47.711Z,0
2016-11-09T05:37:47.748Z,0
2016-11-09T05:39:02.649Z,0
2016-11-09T05:40:02.665Z,4
2016-11-09T05:41:17.595Z,4
2016-11-09T05:41:47.781Z,4
2016-11-09T05:42:48.102Z,0
2016-11-09T05:43:47.818Z,0
2016-11-09T05:44:47.831Z,4
2016-11-09T05:45:47.852Z,4
2016-11-09T05:46:47.859Z,4
2016-11-09T05:47:47.877Z,8
2016-11-09T05:48:47.887Z,4
2016-11-09T05:49:47.912Z,4
2016-11-09T05:50:47.927Z,12
2016-11-09T05:51:47.942Z,8
2016-11-09T05:52:47.960Z,12
2016-11-09T05:54:02.887Z,16
2016-11-09T05:54:47.986Z,16
2016-11-09T05:55:48.003Z,20
2016-11-09T05:57:02.938Z,24
2016-11-09T05:57:48.039Z,28
2016-11-09T05:58:48.728Z,32
2016-11-09T05:59:48.059Z,32
2016-11-09T06:02:03.017Z,44
2016-11-09T06:02:48.115Z,48
2016-11-09T06:03:48.128Z,60
2016-11-09T06:04:48.145Z,60
2016-11-09T06:05:48.160Z,68
2016-11-09T06:06:48.177Z,80
2016-11-09T06:07:48.193Z,88
2016-11-09T06:08:48.216Z,96
2016-11-09T06:09:48.218Z,108
2016-11-09T06:10:48.236Z,120
2016-11-09T06:12:48.266Z,144
2016-11-09T06:14:48.305Z,168
2016-11-09T06:15:48.314Z,180
2016-11-09T06:16:48.331Z,196
2016-11-09T06:17:48.355Z,204
2016-11-09T06:18:48.407Z,216
2016-11-09T06:19:48.384Z,224
2016-11-09T06:20:48.396Z,240
2016-11-09T06:21:48.408Z,256
2016-11-09T06:22:48.424Z,272
2016-11-09T06:24:03.357Z,300
2016-11-09T06:24:48.455Z,312
2016-11-09T06:25:48.468Z,340
2016-11-09T06:26:48.524Z,360
2016-11-09T06:27:48.502Z,388
2016-11-09T06:28:48.515Z,420
2016-11-09T06:29:48.535Z,440
2016-11-09T06:30:48.580Z,464
2016-11-09T06:32:03.521Z,500
2016-11-09T06:32:48.584Z,532
2016-11-09T06:33:48.594Z,572
2016-11-09T06:34:48.618Z,612
2016-11-09T06:36:03.548Z,660
2016-11-09T06:37:04.306Z,716
2016-11-09T06:37:48.659Z,760
2016-11-09T06:38:48.674Z,804
2016-11-09T06:39:48.686Z,844
2016-11-09T06:41:03.621Z,876
2016-11-09T06:41:48.721Z,856
2016-11-09T06:42:48.739Z,800
2016-11-09T06:44:18.579Z,760
2016-11-09T06:44:48.772Z,748
2016-11-09T06:46:48.793Z,732
2016-11-09T06:47:48.818Z,732
2016-11-09T06:48:48.840Z,708
2016-11-09T06:50:48.869Z,680
2016-11-09T06:51:48.872Z,700
2016-11-09T06:52:49.150Z,744
2016-11-09T06:53:48.908Z,808
2016-11-09T06:54:48.924Z,868
2016-11-09T06:55:49.190Z,928
2016-11-09T06:56:48.954Z,992
2016-11-09T06:58:48.991Z,1104
2016-11-09T07:00:03.951Z,1148
2016-11-09T07:00:49.021Z,1160
2016-11-09T07:01:49.070Z,1168
2016-11-09T07:02:49.049Z,1168
2016-11-09T07:03:49.064Z,1172
2016-11-09T07:04:49.078Z,1176
2016-11-09T07:05:49.099Z,1180
2016-11-09T07:06:49.119Z,1188
2016-11-09T07:07:49.129Z,1200
2016-11-09T07:08:49.138Z,1212
2016-11-09T07:09:49.163Z,1224
2016-11-09T07:10:49.173Z,1232
2016-11-09T07:12:04.107Z,1244
2016-11-09T07:12:49.203Z,1252
2016-11-09T07:13:49.227Z,1268
2016-11-09T07:14:49.233Z,1288
2016-11-09T07:16:04.164Z,1316
2016-11-09T07:16:49.278Z,1332
2016-11-09T07:17:49.282Z,1356
2016-11-09T07:18:49.604Z,1376
2016-11-09T07:19:49.315Z,1404
2016-11-09T07:20:49.333Z,1428
2016-11-09T07:21:49.342Z,1456
2016-11-09T07:22:49.357Z,1480
2016-11-09T07:23:49.378Z,1500
2016-11-09T07:24:49.390Z,1516
2016-11-09T07:26:04.329Z,1528
2016-11-09T07:26:49.428Z,1532
2016-11-09T07:27:49.444Z,1536
2016-11-09T07:28:49.455Z,1532
2016-11-09T07:30:04.389Z,1524
2016-11-09T07:31:04.404Z,1508
2016-11-09T07:32:04.418Z,1484
2016-11-09T07:32:49.526Z,1464
2016-11-09T07:33:49.586Z,1448
2016-11-09T07:34:49.560Z,1448
2016-11-09T07:36:04.488Z,1480
2016-11-09T07:36:49.588Z,1520
2016-11-09T07:39:04.531Z,1724
2016-11-09T07:39:49.637Z,1828
2016-11-09T07:40:49.651Z,1992
2016-11-09T07:42:49.997Z,2352
2016-11-09T07:43:49.695Z,2548
2016-11-09T07:44:49.714Z,2740
2016-11-09T07:45:49.784Z,2988
2016-11-09T07:47:04.676Z,3460
2016-11-09T07:47:49.765Z,3816
2016-11-09T07:48:49.780Z,4300
2016-11-09T07:49:49.793Z,4712
2016-11-09T07:50:50.147Z,5284
2016-11-09T07:51:49.824Z,5236
2016-11-09T07:53:04.757Z,5752
2016-11-09T07:53:49.864Z,6388
2016-11-09T07:54:49.875Z,6856
2016-11-09T07:56:04.803Z,6264
2016-11-09T07:56:50.277Z,6832
2016-11-09T07:57:49.927Z,7252
2016-11-09T07:58:49.942Z,7636
2016-11-09T07:59:49.952Z,7016
2016-11-09T08:00:49.980Z,6500
2016-11-09T08:01:49.993Z,6540
2016-11-09T08:02:50.005Z,6604
2016-11-09T08:04:04.946Z,6884
2016-11-09T08:04:50.036Z,6780
2016-11-09T08:05:50.052Z,6852
2016-11-09T08:06:50.075Z,6624
2016-11-09T08:08:05.006Z,6532
2016-11-09T08:08:50.114Z,6336
2016-11-09T08:09:50.126Z,6136
2016-11-09T08:10:50.167Z,6048
2016-11-09T08:11:50.158Z,6184
2016-11-09T08:12:51.007Z,6036
2016-11-09T08:13:50.193Z,6072
2016-11-09T08:14:50.208Z,6176
2016-11-09T08:15:50.266Z,6356
2016-11-09T08:16:50.242Z,6392
2016-11-09T08:17:50.255Z,6528
2016-11-09T08:19:05.207Z,6892
2016-11-09T08:19:50.301Z,6900
2016-11-09T08:20:50.309Z,7404
2016-11-09T08:22:05.238Z,7900
2016-11-09T08:23:05.263Z,8784
2016-11-09T08:23:50.367Z,8724
2016-11-09T08:24:50.381Z,8924
2016-11-09T08:25:50.398Z,10212
2016-11-09T08:26:50.417Z,9876
2016-11-09T08:28:05.349Z,10568
2016-11-09T08:28:50.448Z,11028
2016-11-09T08:29:50.772Z,11244
2016-11-09T08:30:50.484Z,10820
2016-11-09T08:32:50.517Z,11516
2016-11-09T08:33:50.541Z,11708
2016-11-09T08:35:05.475Z,11804
2016-11-09T08:36:05.487Z,12352
2016-11-09T08:37:05.504Z,12704
2016-11-09T08:37:50.611Z,12928
2016-11-09T08:38:50.629Z,12924
2016-11-09T08:39:50.639Z,12812
2016-11-09T08:40:50.769Z,12780
2016-11-09T08:41:50.683Z,12724
2016-11-09T08:43:05.617Z,12540
2016-11-09T08:43:50.720Z,12396
2016-11-09T08:44:50.740Z,12300
2016-11-09T08:45:50.758Z,12080
2016-11-09T08:47:05.692Z,11576
2016-11-09T08:47:50.828Z,11632
2016-11-09T08:48:50.809Z,11072
2016-11-09T08:49:50.830Z,10940
2016-11-09T08:51:06.021Z,10564
2016-11-09T08:51:50.905Z,10012
2016-11-09T08:52:50.886Z,10316
2016-11-09T08:53:50.906Z,10344
2016-11-09T08:55:05.841Z,9956
2016-11-09T08:55:50.942Z,9884
2016-11-09T08:56:51.270Z,9944
2016-11-09T08:58:05.896Z,10140
2016-11-09T08:58:51.001Z,9944
2016-11-09T08:59:51.019Z,9880
2016-11-09T09:01:05.955Z,9768
2016-11-09T09:01:51.368Z,9832
2016-11-09T09:02:51.077Z,9952
2016-11-09T09:03:51.098Z,10272
2016-11-09T09:04:51.164Z,10152
2016-11-09T09:05:51.127Z,8976
2016-11-09T09:07:06.075Z,10428
2016-11-09T09:07:51.222Z,8360
2016-11-09T09:08:51.185Z,10436
2016-11-09T09:09:51.517Z,10608
2016-11-09T09:10:51.379Z,10092
2016-11-09T09:11:51.250Z,9752
2016-11-09T09:12:51.563Z,9036
2016-11-09T09:14:06.196Z,8952
2016-11-09T09:14:51.338Z,8388
2016-11-09T09:15:51.321Z,8264
2016-11-09T09:17:06.249Z,8884
2016-11-09T09:17:51.369Z,8808
2016-11-09T09:18:51.376Z,8964
2016-11-09T09:19:51.395Z,9396
2016-11-09T09:20:51.415Z,9248
2016-11-09T09:22:06.345Z,6368
2016-11-09T09:22:51.459Z,6396
2016-11-09T09:24:51.486Z,6828
2016-11-09T09:25:51.548Z,7084
2016-11-09T09:26:51.628Z,6708
2016-11-09T09:27:51.579Z,7468
2016-11-09T09:28:51.569Z,6972
2016-11-09T09:29:51.741Z,6456
2016-11-09T09:30:51.603Z,5856
2016-11-09T09:31:51.625Z,5468
2016-11-09T09:32:51.638Z,5520
2016-11-09T09:33:51.657Z,5312
2016-11-09T09:34:51.987Z,5292
2016-11-09T09:35:51.703Z,5180
2016-11-09T09:36:51.715Z,4968
2016-11-09T09:37:51.745Z,4944
2016-11-09T09:40:51.796Z,7572
2016-11-09T09:41:52.151Z,8968
2016-11-09T09:42:51.825Z,9004
2016-11-09T09:43:52.152Z,9844
2016-11-09T09:44:51.871Z,9928
2016-11-09T09:46:51.907Z,9408
2016-11-09T09:47:51.923Z,7936
2016-11-09T09:48:51.945Z,8156
2016-11-09T09:49:51.963Z,8516
2016-11-09T09:50:51.973Z,8196
2016-11-09T09:51:52.002Z,7896
2016-11-09T09:52:52.019Z,8328
2016-11-09T09:54:06.948Z,8088
2016-11-09T09:54:52.049Z,7812
2016-11-09T09:55:52.379Z,7468
2016-11-09T09:56:52.091Z,7216
2016-11-09T09:57:52.116Z,6848
2016-11-09T09:58:52.133Z,6784
2016-11-09T09:59:52.151Z,6124
2016-11-09T10:00:52.174Z,5000
2016-11-09T10:01:52.193Z,4604
2016-11-09T10:02:52.243Z,4428
2016-11-09T10:03:52.225Z,5376
2016-11-09T10:04:52.273Z,4684
2016-11-09T10:05:52.269Z,5040
2016-11-09T10:06:52.280Z,5252
2016-11-09T10:07:52.299Z,5544
2016-11-09T10:08:52.326Z,5656
2016-11-09T10:10:07.563Z,5732
2016-11-09T10:10:52.357Z,5748
2016-11-09T10:12:52.403Z,5796
2016-11-09T10:14:07.327Z,6052
2016-11-09T10:14:52.433Z,6428
2016-11-09T10:16:07.373Z,6420
2016-11-09T10:16:52.465Z,6352
2016-11-09T10:17:52.789Z,6144
2016-11-09T10:18:52.514Z,6056
2016-11-09T10:20:52.551Z,6544
2016-11-09T10:22:07.479Z,6528
2016-11-09T10:22:52.618Z,6140
2016-11-09T10:25:07.535Z,5384
2016-11-09T10:26:07.553Z,5552
2016-11-09T10:27:07.569Z,5828
2016-11-09T10:27:52.674Z,5996
2016-11-09T10:28:52.692Z,6092
2016-11-09T10:29:52.722Z,5832
2016-11-09T10:31:07.648Z,5440
2016-11-09T10:31:52.753Z,5520
2016-11-09T10:33:07.691Z,5516
2016-11-09T10:33:52.784Z,5424
2016-11-09T10:34:52.802Z,5396
2016-11-09T10:36:07.744Z,5448
2016-11-09T10:36:52.844Z,5380
2016-11-09T10:37:52.868Z,5072
2016-11-09T10:38:52.888Z,5008
2016-11-09T10:40:07.815Z,4904
2016-11-09T10:40:52.921Z,4872
2016-11-09T10:42:07.858Z,4780
2016-11-09T10:42:52.993Z,4812
2016-11-09T10:44:07.887Z,4816
2016-11-09T10:44:52.994Z,4832
2016-11-09T10:45:53.016Z,4852
2016-11-09T10:46:53.035Z,4928
2016-11-09T10:48:08.005Z,4900
2016-11-09T10:48:53.068Z,4920
2016-11-09T10:49:53.089Z,4920
2016-11-09T10:50:53.108Z,4828
2016-11-09T10:51:53.129Z,4764
2016-11-09T10:52:53.156Z,4804
2016-11-09T10:53:53.168Z,4524
2016-11-09T10:54:53.221Z,4200
2016-11-09T10:56:08.116Z,4976
2016-11-09T10:57:53.239Z,4208
2016-11-09T10:59:53.281Z,5008
2016-11-09T11:00:53.399Z,5020
2016-11-09T11:03:08.251Z,5060
2016-11-09T11:03:54.104Z,5084
2016-11-09T11:04:53.478Z,5060
2016-11-09T11:05:53.394Z,4872
2016-11-09T11:06:53.407Z,4824
2016-11-09T11:07:53.477Z,4892
2016-11-09T11:08:53.496Z,4956
2016-11-09T11:09:53.464Z,4952
2016-11-09T11:12:53.602Z,4996
2016-11-09T11:13:53.540Z,5088
2016-11-09T11:14:53.561Z,5116
2016-11-09T11:15:53.583Z,5328
2016-11-09T11:16:53.603Z,5420
2016-11-09T11:17:53.813Z,5332
2016-11-09T11:18:53.634Z,5092
2016-11-09T11:19:53.654Z,5020
2016-11-09T11:21:09.889Z,4900
2016-11-09T11:21:54.143Z,4832
2016-11-09T11:23:08.824Z,4180
2016-11-09T11:24:53.753Z,4548
2016-11-09T11:25:53.775Z,4924
2016-11-09T11:27:08.751Z,4932
2016-11-09T11:27:53.972Z,5372
2016-11-09T11:29:08.738Z,4800
2016-11-09T11:30:55.611Z,4384
2016-11-09T11:31:53.929Z,4356
2016-11-09T11:32:53.908Z,4436
2016-11-09T11:33:53.916Z,4640
2016-11-09T11:34:53.987Z,4724
2016-11-09T11:35:54.251Z,4844
2016-11-09T11:36:53.975Z,5040
2016-11-09T11:37:54.047Z,5324
2016-11-09T11:38:54.021Z,5916
2016-11-09T11:39:54.784Z,5856
2016-11-09T11:40:54.049Z,5524
2016-11-09T11:41:54.073Z,4868
2016-11-09T11:42:54.101Z,4268
2016-11-09T11:44:09.025Z,3528
2016-11-09T11:45:09.048Z,3512
2016-11-09T11:45:54.147Z,4068
2016-11-09T11:46:54.167Z,3836
2016-11-09T11:47:54.184Z,3988
2016-11-09T11:48:54.205Z,3968
2016-11-09T11:49:54.221Z,3992
2016-11-09T11:50:54.247Z,3956
2016-11-09T11:51:54.360Z,4176
2016-11-09T11:52:54.275Z,3960
2016-11-09T11:53:54.460Z,3860
2016-11-09T11:54:54.318Z,3844
2016-11-09T11:55:54.339Z,3788
2016-11-09T11:56:54.358Z,3916
2016-11-09T11:57:54.476Z,3980
2016-11-09T11:58:54.397Z,4024
2016-11-09T11:59:54.517Z,4144
2016-11-09T12:01:09.345Z,4240
2016-11-09T12:01:54.448Z,4304
2016-11-09T12:02:54.571Z,4496
2016-11-09T12:03:54.591Z,4672
2016-11-09T12:04:54.505Z,4728
2016-11-09T12:05:54.524Z,4680
2016-11-09T12:06:54.552Z,4944
2016-11-09T12:07:54.666Z,4932
2016-11-09T12:08:54.686Z,4904
2016-11-09T12:10:54.628Z,4492
2016-11-09T12:11:54.977Z,4452
2016-11-09T12:12:54.657Z,4148
2016-11-09T12:13:54.686Z,3660
2016-11-09T12:14:54.699Z,3424
2016-11-09T12:15:54.761Z,3388
2016-11-09T12:17:09.708Z,3656
2016-11-09T12:18:54.835Z,4156
2016-11-09T12:19:54.798Z,4224
2016-11-09T12:21:09.736Z,4628
2016-11-09T12:21:55.143Z,4348
2016-11-09T12:22:54.855Z,3952
2016-11-09T12:23:54.955Z,3464
2016-11-09T12:24:54.893Z,3344
2016-11-09T12:25:54.917Z,3328
2016-11-09T12:26:54.982Z,3276
2016-11-09T12:27:55.567Z,3076
2016-11-09T12:28:56.076Z,2980
2016-11-09T12:30:09.900Z,2988
2016-11-09T12:30:55.464Z,3040
2016-11-09T12:32:10.188Z,3080
2016-11-09T12:32:55.042Z,3192
2016-11-09T12:33:55.612Z,3372
2016-11-09T12:34:55.081Z,3560
2016-11-09T12:36:10.016Z,4060
2016-11-09T12:36:55.116Z,4380
2016-11-09T12:37:55.139Z,4664
2016-11-09T12:38:55.157Z,4128
2016-11-09T12:39:55.176Z,3860
2016-11-09T12:40:55.193Z,3776
2016-11-09T12:41:55.206Z,3668
2016-11-09T12:42:55.232Z,3656
2016-11-09T12:43:55.251Z,3592
2016-11-09T12:44:55.273Z,3328
2016-11-09T12:45:55.295Z,3076
2016-11-09T12:46:55.303Z,2852
2016-11-09T12:47:55.321Z,2696
2016-11-09T12:48:55.349Z,2676
2016-11-09T12:49:55.367Z,2660
2016-11-09T12:50:55.381Z,2620
2016-11-09T12:51:55.404Z,2636
2016-11-09T12:52:55.421Z,3012
2016-11-09T12:53:55.435Z,3136
2016-11-09T12:55:55.480Z,2868
2016-11-09T12:56:55.498Z,2940
2016-11-09T12:57:55.517Z,3296
2016-11-09T12:58:55.531Z,3160
2016-11-09T12:59:55.582Z,3000
2016-11-09T13:00:55.601Z,2872
2016-11-09T13:01:55.586Z,2912
2016-11-09T13:02:55.607Z,2756
2016-11-09T13:04:25.458Z,2564
2016-11-09T13:04:55.655Z,2528
2016-11-09T13:05:55.666Z,2452
2016-11-09T13:06:55.685Z,2400
2016-11-09T13:07:55.709Z,2396
2016-11-09T13:09:10.641Z,2440
2016-11-09T13:09:55.844Z,2440
2016-11-09T13:10:55.773Z,2428
2016-11-09T13:11:55.781Z,2480
2016-11-09T13:13:10.709Z,2380
2016-11-09T13:14:10.730Z,2416
2016-11-09T13:14:55.834Z,2408
2016-11-09T13:15:55.851Z,2392
2016-11-09T13:16:55.907Z,2360
2016-11-09T13:18:10.804Z,2380
2016-11-09T13:20:10.840Z,2552
2016-11-09T13:20:55.947Z,2588
2016-11-09T13:21:55.963Z,2676
2016-11-09T13:22:56.009Z,2720
2016-11-09T13:24:10.941Z,2632
2016-11-09T13:24:56.327Z,2600
2016-11-09T13:25:56.034Z,2560
2016-11-09T13:27:10.971Z,2516
2016-11-09T13:27:56.073Z,2496
2016-11-09T13:28:56.093Z,2476
2016-11-09T13:29:56.112Z,2452
2016-11-09T13:31:56.349Z,2420
2016-11-09T13:32:56.183Z,2364
2016-11-09T13:33:56.189Z,2332
2016-11-09T13:34:56.952Z,2308
2016-11-09T13:36:11.232Z,2288
2016-11-09T13:36:56.647Z,2280
2016-11-09T13:37:56.320Z,2264
2016-11-09T13:38:56.281Z,2244
2016-11-09T13:39:56.345Z,2232
2016-11-09T13:40:56.617Z,2212
2016-11-09T13:41:56.531Z,2192
2016-11-09T13:42:56.547Z,2172
2016-11-09T13:43:56.417Z,2156
2016-11-09T13:44:56.491Z,2140
2016-11-09T13:45:56.755Z,2124
2016-11-09T13:46:56.624Z,2108
2016-11-09T13:47:56.435Z,2096
2016-11-09T13:48:56.560Z,2084
2016-11-09T13:49:56.477Z,2080
2016-11-09T13:50:56.489Z,2072
2016-11-09T13:52:11.827Z,2072
2016-11-09T13:52:56.541Z,2072
2016-11-09T13:53:56.600Z,2068
2016-11-09T13:54:56.671Z,2056
2016-11-09T13:55:56.588Z,2036
2016-11-09T13:57:56.620Z,2008
2016-11-09T13:59:11.559Z,1988
2016-11-09T14:00:11.621Z,1976
2016-11-09T14:01:11.598Z,1980
2016-11-09T14:02:11.657Z,1992
2016-11-09T14:02:56.763Z,1964
2016-11-09T14:03:56.735Z,1912
2016-11-09T14:04:56.757Z,1896
2016-11-09T14:05:56.768Z,1876
2016-11-09T14:07:11.702Z,1868
2016-11-09T14:07:56.807Z,1856
2016-11-09T14:08:56.830Z,1784
2016-11-09T14:09:56.840Z,1740
2016-11-09T14:10:56.864Z,1700
2016-11-09T14:13:11.810Z,1620
2016-11-09T14:14:11.831Z,1584
2016-11-09T14:15:56.953Z,1528
2016-11-09T14:17:11.937Z,1488
2016-11-09T14:17:57.585Z,1468
2016-11-09T14:18:57.058Z,1448
2016-11-09T14:20:11.940Z,1412
2016-11-09T14:20:57.040Z,1392
2016-11-09T14:21:57.061Z,1368
2016-11-09T14:22:57.138Z,1344
2016-11-09T14:23:57.105Z,1328
2016-11-09T14:24:57.414Z,1304
2016-11-09T14:25:57.141Z,1288
2016-11-09T14:26:57.149Z,1264
2016-11-09T14:27:57.176Z,1252
2016-11-09T14:28:57.194Z,1232
2016-11-09T14:29:57.203Z,1212
2016-11-09T14:30:57.225Z,1196
2016-11-09T14:31:57.242Z,1176
2016-11-09T14:32:57.763Z,1156
2016-11-09T14:33:57.534Z,1132
2016-11-09T14:34:57.300Z,1108
2016-11-09T14:35:57.318Z,1080
2016-11-09T14:36:57.568Z,1052
2016-11-09T14:38:12.267Z,1024
2016-11-09T14:39:12.281Z,1000
2016-11-09T14:39:57.488Z,988
2016-11-09T14:40:57.507Z,960